createdAt,value
2022-08-22T00:02:24.614Z,96214.06
2022-08-22T00:02:49.936Z,96226.16
2022-08-22T00:03:06.941Z,96221.09
2022-08-22T00:05:10.662Z,96215.72
2022-08-22T00:07:51.111Z,96229.78
2022-08-22T00:10:25.919Z,96215.97
2022-08-22T00:13:07.483Z,96221.78
2022-08-22T00:15:43.416Z,96223.25
2022-08-22T00:18:29.430Z,96225.75
2022-08-22T00:21:12.873Z,96220.50
2022-08-22T00:23:52.688Z,96223.94
2022-08-22T00:26:31.951Z,96223.94
2022-08-22T00:29:05.374Z,96218.94
2022-08-22T00:31:32.349Z,96218.91
2022-08-22T00:34:18.066Z,96214.50
2022-08-22T00:37:07.832Z,96213.88
2022-08-22T00:39:52.184Z,96218.78
2022-08-22T00:42:35.068Z,96223.38
2022-08-22T00:45:36.404Z,96202.69
2022-08-22T00:48:23.262Z,96211.16
2022-08-22T00:50:51.516Z,96214.97
2022-08-22T00:53:55.262Z,96214.47
2022-08-22T00:56:45.179Z,96213.72
2022-08-22T00:59:28.743Z,96210.91
2022-08-22T01:02:22.158Z,96214.03
2022-08-22T01:05:11.111Z,96203.84
2022-08-22T01:08:18.050Z,96204.03
2022-08-22T01:11:05.995Z,96216.94
2022-08-22T01:14:00.730Z,96217.03
2022-08-22T01:16:46.039Z,96224.06
2022-08-22T01:19:43.281Z,96221.81
2022-08-22T01:22:19.880Z,96223.47
2022-08-22T01:25:22.464Z,96217.53
2022-08-22T01:28:14.578Z,96222.56
2022-08-22T01:30:46.047Z,96221.66
2022-08-22T01:33:36.128Z,96208.75
2022-08-22T01:36:23.603Z,96226.78
2022-08-22T01:39:08.781Z,96217.09
2022-08-22T01:41:52.557Z,96213.84
2022-08-22T01:44:47.073Z,96216.97
2022-08-22T01:47:37.787Z,96211.91
2022-08-22T01:50:21.315Z,96216.13
2022-08-22T01:53:14.506Z,96218.78
2022-08-22T01:56:07.961Z,96199.25
2022-08-22T01:58:37.699Z,96207.34
2022-08-22T02:01:10.836Z,96216.66
2022-08-22T02:04:16.431Z,96221.94
2022-08-22T02:06:59.141Z,96215.97
2022-08-22T02:09:36.256Z,96230.09
2022-08-22T02:12:22.503Z,96222.38
2022-08-22T02:15:26.729Z,96216.44
2022-08-22T02:17:56.400Z,96225.88
2022-08-22T02:20:41.404Z,96226.03
2022-08-22T02:23:30.247Z,96221.97
2022-08-22T02:26:01.356Z,96221.97
2022-08-22T02:28:42.423Z,96227.25
2022-08-22T02:31:49.350Z,96209.66
2022-08-22T02:34:36.833Z,96226.84
2022-08-22T02:37:54.919Z,96229.50
2022-08-22T02:40:38.018Z,96229.69
2022-08-22T02:43:28.326Z,96219.56
2022-08-22T02:46:20.087Z,96233.34
2022-08-22T02:49:27.348Z,96227.19
2022-08-22T02:52:24.228Z,96207.50
2022-08-22T02:55:04.675Z,96228.88
2022-08-22T02:57:47.435Z,96234.84
2022-08-22T03:00:30.659Z,96233.84
2022-08-22T03:03:16.757Z,96230.56
2022-08-22T03:06:10.004Z,96222.00
2022-08-22T03:08:47.527Z,96179.84
2022-08-22T03:11:30.356Z,96225.38
2022-08-22T03:14:04.697Z,96227.88
2022-08-22T03:17:02.906Z,96227.06
2022-08-22T03:19:51.439Z,96230.06
2022-08-22T03:22:30.261Z,96226.69
2022-08-22T03:25:14.643Z,96227.97
2022-08-22T03:27:52.070Z,96224.31
2022-08-22T03:30:28.870Z,96209.75
2022-08-22T03:33:13.054Z,96208.13
2022-08-22T03:35:55.648Z,96220.03
2022-08-22T03:38:41.811Z,96202.03
2022-08-22T03:41:27.140Z,96223.28
2022-08-22T03:44:15.550Z,96215.44
2022-08-22T03:47:07.005Z,96222.28
2022-08-22T03:50:07.458Z,96219.19
2022-08-22T03:53:06.515Z,96221.09
2022-08-22T03:56:16.981Z,96232.66
2022-08-22T03:59:01.141Z,96231.03
2022-08-22T04:01:54.236Z,96229.34
2022-08-22T04:04:40.598Z,96221.56
2022-08-22T04:07:33.287Z,96237.25
2022-08-22T04:10:12.769Z,96245.13
2022-08-22T04:13:11.207Z,96241.50
2022-08-22T04:15:49.694Z,96245.75
2022-08-22T04:18:36.516Z,96250.31
2022-08-22T04:21:14.780Z,96229.78
2022-08-22T04:24:02.763Z,96257.34
2022-08-22T04:26:47.223Z,96229.72
2022-08-22T04:29:33.960Z,96243.50
2022-08-22T04:32:22.942Z,96257.19
2022-08-22T04:35:15.567Z,96238.97
2022-08-22T04:37:57.046Z,96229.41
2022-08-22T04:40:36.952Z,96250.94
2022-08-22T04:43:11.601Z,96249.38
2022-08-22T04:45:49.579Z,96247.66
2022-08-22T04:48:18.655Z,96247.56
2022-08-22T04:50:45.207Z,96264.94
2022-08-22T04:53:37.564Z,96247.78
2022-08-22T04:56:22.526Z,96259.94
2022-08-22T04:59:04.647Z,96268.38
2022-08-22T05:01:58.514Z,96267.38
2022-08-22T05:04:42.537Z,96259.44
2022-08-22T05:07:19.706Z,96269.91
2022-08-22T05:09:52.944Z,96278.41
2022-08-22T05:12:29.123Z,96267.31
2022-08-22T05:15:27.348Z,96276.38
2022-08-22T05:17:56.388Z,96268.53
2022-08-22T05:20:25.616Z,96269.31
2022-08-22T05:22:56.698Z,96257.28
2022-08-22T05:25:30.699Z,96263.31
2022-08-22T05:28:19.172Z,96267.59
2022-08-22T05:30:47.434Z,96261.66
2022-08-22T05:33:30.691Z,96264.13
2022-08-22T05:36:03.555Z,96251.31
2022-08-22T05:38:34.866Z,96269.03
2022-08-22T05:41:10.310Z,96282.72
2022-08-22T05:43:41.787Z,96290.34
2022-08-22T05:46:20.500Z,96259.25
2022-08-22T05:48:59.869Z,96282.22
2022-08-22T05:51:36.861Z,96270.94
2022-08-22T05:54:12.407Z,96267.25
2022-08-22T05:56:52.951Z,96279.16
2022-08-22T05:59:25.541Z,96284.72
2022-08-22T06:02:02.413Z,96287.84
2022-08-22T06:04:39.443Z,96290.13
2022-08-22T06:07:17.684Z,96291.56
2022-08-22T06:09:47.853Z,96291.41
2022-08-22T06:12:21.664Z,96287.63
2022-08-22T06:15:21.088Z,96284.53
2022-08-22T06:18:01.916Z,96267.88
2022-08-22T06:20:37.138Z,96261.50
2022-08-22T06:23:06.070Z,96266.50
2022-08-22T06:25:37.700Z,96268.59
2022-08-22T06:28:14.092Z,96276.75
2022-08-22T06:30:45.626Z,96270.59
2022-08-22T06:33:18.979Z,96289.72
2022-08-22T06:36:08.233Z,96281.44
2022-08-22T06:39:27.282Z,96297.59
2022-08-22T06:42:05.514Z,96277.31
2022-08-22T06:44:35.879Z,96298.28
2022-08-22T06:47:09.123Z,96302.91
2022-08-22T06:49:39.504Z,96269.38
2022-08-22T06:52:11.677Z,96271.44
2022-08-22T06:54:43.822Z,96264.59
2022-08-22T06:57:44.180Z,96291.56
2022-08-22T07:00:13.865Z,96279.38
2022-08-22T07:02:46.452Z,96269.56
2022-08-22T07:05:24.748Z,96284.81
2022-08-22T07:07:53.067Z,96274.09
2022-08-22T07:10:21.865Z,96265.50
2022-08-22T07:12:52.331Z,96264.19
2022-08-22T07:15:24.443Z,96281.19
2022-08-22T07:17:54.826Z,96282.72
2022-08-22T07:20:27.984Z,96276.28
2022-08-22T07:23:00.099Z,96289.44
2022-08-22T07:25:28.203Z,96277.03
2022-08-22T07:28:37.097Z,96272.06
2022-08-22T07:31:25.981Z,96283.63
2022-08-22T07:34:04.611Z,96278.34
2022-08-22T07:37:02.330Z,96281.72
2022-08-22T07:39:39.748Z,96265.03
2022-08-22T07:42:13.878Z,96275.34
2022-08-22T07:44:46.636Z,96277.84
2022-08-22T07:47:18.012Z,96262.13
2022-08-22T07:49:58.811Z,96272.09
2022-08-22T07:52:26.973Z,96262.63
2022-08-22T07:54:57.885Z,96281.38
2022-08-22T07:57:37.724Z,96281.72
2022-08-22T08:00:12.613Z,96281.31
2022-08-22T08:02:50.119Z,96274.28
2022-08-22T08:05:20.042Z,96255.41
2022-08-22T08:07:47.975Z,96289.56
2022-08-22T08:10:20.033Z,96282.00
2022-08-22T08:13:01.756Z,96274.06
2022-08-22T08:15:31.991Z,96278.50
2022-08-22T08:18:19.119Z,96292.00
2022-08-22T08:20:56.659Z,96220.00
2022-08-22T08:23:25.149Z,96294.78
2022-08-22T08:26:17.203Z,96289.91
2022-08-22T08:28:49.148Z,96294.53
2022-08-22T08:31:31.483Z,96289.66
2022-08-22T08:34:08.836Z,96269.69
2022-08-22T08:36:49.324Z,96287.16
2022-08-22T08:39:18.519Z,96286.31
2022-08-22T08:42:10.418Z,96286.16
2022-08-22T08:45:07.356Z,96291.09
2022-08-22T08:48:11.145Z,96287.81
2022-08-22T08:50:51.882Z,96290.72
2022-08-22T08:53:43.271Z,96302.84
2022-08-22T08:56:28.542Z,96292.75
2022-08-22T08:59:10.049Z,96260.72
2022-08-22T09:01:41.660Z,96296.41
2022-08-22T09:04:21.061Z,96299.38
2022-08-22T09:07:09.440Z,96287.75
2022-08-22T09:09:42.788Z,96296.03
2022-08-22T09:12:25.876Z,96299.22
2022-08-22T09:15:02.881Z,96303.22
2022-08-22T09:17:54.445Z,96314.13
2022-08-22T09:20:53.884Z,96287.72
2022-08-22T09:23:43.333Z,96301.00
2022-08-22T09:26:17.518Z,96298.34
2022-08-22T09:29:34.294Z,96294.38
2022-08-22T09:32:13.089Z,96311.16
2022-08-22T09:34:51.780Z,96329.91
2022-08-22T09:37:35.261Z,96330.97
2022-08-22T09:40:17.466Z,96352.28
2022-08-22T09:43:21.367Z,96349.69
2022-08-22T09:45:57.493Z,96334.50
2022-08-22T09:48:43.588Z,96343.72
2022-08-22T09:51:33.165Z,96334.59
2022-08-22T09:54:06.382Z,96359.72
2022-08-22T09:56:47.811Z,96339.81
2022-08-22T09:59:25.340Z,96336.22
2022-08-22T10:02:29.259Z,96335.59
2022-08-22T10:05:39.513Z,96330.63
2022-08-22T10:08:30.523Z,96320.66
2022-08-22T10:11:07.489Z,96328.66
2022-08-22T10:14:09.183Z,96342.47
2022-08-22T10:16:54.664Z,96328.91
2022-08-22T10:19:33.758Z,96339.59
2022-08-22T10:22:15.247Z,96341.41
2022-08-22T10:25:07.604Z,96345.81
2022-08-22T10:27:47.108Z,96352.09
2022-08-22T10:30:59.374Z,96345.88
2022-08-22T10:34:09.168Z,96329.44
2022-08-22T10:37:16.171Z,96364.25
2022-08-22T10:39:48.496Z,96348.59
2022-08-22T10:42:41.731Z,96369.56
2022-08-22T10:45:35.262Z,96369.28
2022-08-22T10:48:16.359Z,96384.22
2022-08-22T10:50:48.196Z,96383.69
2022-08-22T10:53:34.981Z,96360.91
2022-08-22T10:56:16.175Z,96369.53
2022-08-22T10:58:56.140Z,96360.41
2022-08-22T11:01:38.446Z,96379.13
2022-08-22T11:04:45.921Z,96386.56
2022-08-22T11:07:39.484Z,96379.41
2022-08-22T11:10:37.522Z,96388.13
2022-08-22T11:13:29.070Z,96376.53
2022-08-22T11:16:05.979Z,96405.78
2022-08-22T11:19:02.852Z,96386.59
2022-08-22T11:22:03.656Z,96395.69
2022-08-22T11:25:04.165Z,96403.78
2022-08-22T11:27:42.206Z,96384.75
2022-08-22T11:30:18.228Z,96386.59
2022-08-22T11:33:11.596Z,96390.50
2022-08-22T11:36:04.642Z,96387.63
2022-08-22T11:38:41.332Z,96370.25
2022-08-22T11:41:14.362Z,96378.03
2022-08-22T11:43:49.130Z,96382.34
2022-08-22T11:46:31.823Z,96375.59
2022-08-22T11:49:05.616Z,96365.72
2022-08-22T11:51:45.966Z,96383.38
2022-08-22T11:54:20.989Z,96365.44
2022-08-22T11:57:14.959Z,96351.66
2022-08-22T11:59:43.361Z,96383.28
2022-08-22T12:02:31.597Z,96393.81
2022-08-22T12:05:06.742Z,96358.56
2022-08-22T12:07:39.386Z,96341.78
2022-08-22T12:10:19.734Z,96374.25
2022-08-22T12:12:56.255Z,96380.47
2022-08-22T12:15:36.376Z,96405.41
2022-08-22T12:18:06.273Z,96350.84
2022-08-22T12:20:52.922Z,96385.47
2022-08-22T12:23:43.453Z,96366.03
2022-08-22T12:26:47.323Z,96344.16
2022-08-22T12:29:45.173Z,96349.41
2022-08-22T12:32:44.065Z,96330.44
2022-08-22T12:35:30.115Z,96340.75
2022-08-22T12:38:29.387Z,96322.53
2022-08-22T12:41:27.654Z,96313.06
2022-08-22T12:44:14.779Z,96321.19
2022-08-22T12:46:57.608Z,96333.84
2022-08-22T12:49:52.346Z,96320.91
2022-08-22T12:52:27.781Z,96314.28
2022-08-22T12:55:24.871Z,96255.06
2022-08-22T12:58:18.769Z,96304.84
2022-08-22T13:00:48.176Z,96302.56
2022-08-22T13:03:27.200Z,96291.72
2022-08-22T13:06:03.535Z,96243.50
2022-08-22T13:08:38.589Z,96286.31
2022-08-22T13:11:17.493Z,96281.81
2022-08-22T13:13:58.859Z,96282.31
2022-08-22T13:16:36.390Z,96285.44
2022-08-22T13:19:13.466Z,96272.03
2022-08-22T13:21:45.770Z,96285.44
2022-08-22T13:24:22.532Z,96261.03
2022-08-22T13:26:55.135Z,96276.28
2022-08-22T13:29:27.320Z,96296.72
2022-08-22T13:32:01.961Z,96275.38
2022-08-22T13:34:49.142Z,96263.94
2022-08-22T13:37:20.260Z,96273.16
2022-08-22T13:39:55.159Z,96282.56
2022-08-22T13:42:30.141Z,96280.75
2022-08-22T13:45:02.447Z,96308.22
2022-08-22T13:47:32.469Z,96314.56
2022-08-22T13:50:13.955Z,96276.81
2022-08-22T13:52:52.444Z,96260.75
2022-08-22T13:55:29.426Z,96269.69
2022-08-22T13:58:04.627Z,96221.41
2022-08-22T14:01:05.847Z,96281.19
2022-08-22T14:03:49.240Z,96285.31
2022-08-22T14:06:50.106Z,96289.81
2022-08-22T14:09:45.285Z,96287.78
2022-08-22T14:12:19.463Z,96286.81
2022-08-22T14:15:00.577Z,96312.22
2022-08-22T14:17:42.513Z,96300.34
2022-08-22T14:20:32.218Z,96289.81
2022-08-22T14:23:06.203Z,96282.97
2022-08-22T14:25:36.451Z,96290.13
2022-08-22T14:28:11.537Z,96270.59
2022-08-22T14:31:00.909Z,96265.38
2022-08-22T14:33:34.092Z,96276.66
2022-08-22T14:36:17.220Z,96254.50
2022-08-22T14:38:53.431Z,96248.84
2022-08-22T14:41:52.306Z,96280.75
2022-08-22T14:44:45.994Z,96281.13
2022-08-22T14:47:55.610Z,96272.63
2022-08-22T14:50:43.643Z,96302.19
2022-08-22T14:53:22.124Z,96288.50
2022-08-22T14:55:58.608Z,96271.41
2022-08-22T14:58:27.749Z,96278.78
2022-08-22T15:00:56.165Z,96262.38
2022-08-22T15:03:27.826Z,96276.47
2022-08-22T15:06:02.060Z,96262.22
2022-08-22T15:08:35.143Z,96217.53
2022-08-22T15:11:25.157Z,96277.06
2022-08-22T15:14:04.178Z,96283.03
2022-08-22T15:16:34.863Z,96241.53
2022-08-22T15:19:02.253Z,96269.78
2022-08-22T15:21:32.808Z,96282.28
2022-08-22T15:24:06.530Z,96266.09
2022-08-22T15:26:38.383Z,96203.56
2022-08-22T15:29:31.639Z,96233.03
2022-08-22T15:32:00.996Z,96251.94
2022-08-22T15:34:32.632Z,96260.78
2022-08-22T15:37:17.695Z,96264.44
2022-08-22T15:40:12.749Z,96258.06
2022-08-22T15:42:44.030Z,96252.06
2022-08-22T15:45:30.581Z,96257.56
2022-08-22T15:48:04.503Z,96244.41
2022-08-22T15:50:37.426Z,96248.03
2022-08-22T15:53:27.699Z,96262.16
2022-08-22T15:56:06.792Z,96255.75
2022-08-22T15:58:40.281Z,96249.03
2022-08-22T16:01:22.173Z,96244.09
2022-08-22T16:04:03.476Z,96242.47
2022-08-22T16:06:46.655Z,96247.47
2022-08-22T16:09:40.644Z,96232.16
2022-08-22T16:12:37.316Z,96237.56
2022-08-22T16:15:44.619Z,96236.31
2022-08-22T16:18:39.366Z,96251.00
2022-08-22T16:21:31.422Z,96254.50
2022-08-22T16:24:01.300Z,96246.69
2022-08-22T16:26:31.623Z,96240.94
2022-08-22T16:29:07.997Z,96242.75
2022-08-22T16:31:57.207Z,96212.94
2022-08-22T16:34:24.879Z,96236.44
2022-08-22T16:37:08.903Z,96241.13
2022-08-22T16:39:50.130Z,96195.47
2022-08-22T16:42:24.175Z,96236.81
2022-08-22T16:45:08.886Z,96230.84
2022-08-22T16:47:59.269Z,96221.09
2022-08-22T16:50:34.742Z,96214.88
2022-08-22T16:53:30.875Z,96218.91
2022-08-22T16:56:18.370Z,96220.06
2022-08-22T16:59:03.333Z,96217.25
2022-08-22T17:01:54.922Z,96214.34
2022-08-22T17:04:37.799Z,96211.69
2022-08-22T17:07:17.801Z,96234.22
2022-08-22T17:09:55.782Z,96224.94
2022-08-22T17:12:30.455Z,96219.28
2022-08-22T17:15:09.726Z,96229.97
2022-08-22T17:17:47.394Z,96227.72
2022-08-22T17:20:20.424Z,96227.91
2022-08-22T17:22:51.486Z,96229.63
2022-08-22T17:25:23.531Z,96223.81
2022-08-22T17:28:00.255Z,96196.19
2022-08-22T17:30:44.422Z,96217.78
2022-08-22T17:33:40.508Z,96222.22
2022-08-22T17:36:26.544Z,96227.44
2022-08-22T17:39:29.117Z,96221.25
2022-08-22T17:42:23.781Z,96207.03
2022-08-22T17:44:59.575Z,96237.75
2022-08-22T17:47:37.486Z,96222.09
2022-08-22T17:50:11.090Z,96238.06
2022-08-22T17:52:46.452Z,96227.38
2022-08-22T17:55:28.983Z,96152.88
2022-08-22T17:58:37.596Z,96231.34
2022-08-22T18:01:10.666Z,96218.81
2022-08-22T18:03:42.388Z,96240.94
2022-08-22T18:06:25.281Z,96220.75
2022-08-22T18:09:15.212Z,96219.72
2022-08-22T18:12:07.105Z,96242.06
2022-08-22T18:14:45.116Z,96232.81
2022-08-22T18:17:38.462Z,96238.66
2022-08-22T18:20:23.983Z,96243.22
2022-08-22T18:22:56.782Z,96241.47
2022-08-22T18:25:34.607Z,96241.31
2022-08-22T18:28:40.765Z,96240.50
2022-08-22T18:31:16.406Z,96222.59
2022-08-22T18:33:57.222Z,96239.78
2022-08-22T18:36:38.309Z,96208.53
2022-08-22T18:39:22.707Z,96209.16
2022-08-22T18:42:07.995Z,96250.81
2022-08-22T18:44:39.449Z,96224.19
2022-08-22T18:47:17.129Z,96243.47
2022-08-22T18:49:48.482Z,96241.09
2022-08-22T18:52:19.538Z,96244.06
2022-08-22T18:55:17.229Z,96235.44
2022-08-22T18:58:10.815Z,96262.59
2022-08-22T19:01:11.135Z,96263.13
2022-08-22T19:03:54.972Z,96249.13
2022-08-22T19:07:04.635Z,96228.66
2022-08-22T19:09:47.064Z,96266.00
2022-08-22T19:12:32.156Z,96274.31
2022-08-22T19:15:21.595Z,96282.31
2022-08-22T19:18:04.795Z,96282.88
2022-08-22T19:20:57.759Z,96287.59
2022-08-22T19:23:40.369Z,96289.09
2022-08-22T19:26:28.542Z,96292.28
2022-08-22T19:28:59.619Z,96298.00
2022-08-22T19:31:35.264Z,96302.81
2022-08-22T19:34:29.980Z,96300.59
2022-08-22T19:37:32.457Z,96311.31
2022-08-22T19:40:08.963Z,96309.84
2022-08-22T19:42:41.495Z,96303.22
2022-08-22T19:45:17.783Z,96307.53
2022-08-22T19:47:54.379Z,96309.16
2022-08-22T19:50:21.311Z,96318.47
2022-08-22T19:52:57.784Z,96316.91
2022-08-22T19:55:37.851Z,96311.56
2022-08-22T19:58:31.942Z,96312.72
2022-08-22T20:01:27.418Z,96306.22
2022-08-22T20:04:01.869Z,96301.19
2022-08-22T20:06:44.444Z,96315.28
2022-08-22T20:09:38.845Z,96324.25
2022-08-22T20:12:29.666Z,96291.06
2022-08-22T20:15:16.438Z,96314.94
2022-08-22T20:17:44.479Z,96290.75
2022-08-22T20:20:35.610Z,96302.47
2022-08-22T20:23:15.852Z,96320.13
2022-08-22T20:25:50.200Z,96336.75
2022-08-22T20:28:33.279Z,96332.63
2022-08-22T20:31:10.594Z,96319.81
2022-08-22T20:33:46.043Z,96241.00
2022-08-22T20:36:28.480Z,96324.41
2022-08-22T20:39:07.653Z,96330.09
2022-08-22T20:41:40.508Z,96307.13
2022-08-22T20:44:16.076Z,96300.59
2022-08-22T20:46:55.198Z,96311.88
2022-08-22T20:49:30.458Z,96313.13
2022-08-22T20:52:04.831Z,96321.94
2022-08-22T20:54:37.942Z,96322.13
2022-08-22T20:57:17.147Z,96314.41
2022-08-22T20:59:54.388Z,96318.94
2022-08-22T21:02:26.564Z,96322.66
2022-08-22T21:04:57.661Z,96323.09
2022-08-22T21:07:28.949Z,96312.03
2022-08-22T21:10:34.951Z,96326.66
2022-08-22T21:13:12.340Z,96318.19
2022-08-22T21:15:58.080Z,96324.88
2022-08-22T21:18:34.107Z,96323.75
2022-08-22T21:21:17.513Z,96325.28
2022-08-22T21:23:49.926Z,96324.47
2022-08-22T21:26:28.685Z,96308.88
2022-08-22T21:28:57.553Z,96303.97
2022-08-22T21:31:27.245Z,96316.84
2022-08-22T21:33:55.148Z,96275.91
2022-08-22T21:36:29.334Z,96301.34
2022-08-22T21:38:59.576Z,96311.22
2022-08-22T21:41:31.616Z,96267.50
2022-08-22T21:44:19.490Z,96309.28
2022-08-22T21:46:46.266Z,96288.75
2022-08-22T21:49:29.168Z,96312.91
2022-08-22T21:51:56.186Z,96308.47
2022-08-22T21:54:25.390Z,96318.97
2022-08-22T21:56:56.864Z,96313.72
2022-08-22T21:59:40.232Z,96309.66
2022-08-22T22:02:27.550Z,96307.16
2022-08-22T22:04:55.995Z,96298.72
2022-08-22T22:07:25.678Z,96297.06
2022-08-22T22:09:55.326Z,96307.63
2022-08-22T22:12:23.982Z,96300.84
2022-08-22T22:14:51.850Z,96300.25
2022-08-22T22:17:21.006Z,96312.34
2022-08-22T22:19:48.463Z,96303.03
2022-08-22T22:22:16.582Z,96300.63
2022-08-22T22:24:43.925Z,96278.38
2022-08-22T22:27:16.388Z,96303.22
2022-08-22T22:29:44.621Z,96310.09
2022-08-22T22:32:11.612Z,96296.41
2022-08-22T22:34:40.043Z,96289.84
2022-08-22T22:37:08.367Z,96315.66
2022-08-22T22:39:36.345Z,96319.91
2022-08-22T22:42:06.806Z,96276.13
2022-08-22T22:44:39.041Z,96304.53
2022-08-22T22:47:09.760Z,96308.28
2022-08-22T22:49:37.791Z,96280.19
2022-08-22T22:52:06.205Z,96291.53
2022-08-22T22:54:38.310Z,96313.16
2022-08-22T22:57:12.483Z,96299.00
2022-08-22T22:59:39.552Z,96305.16
2022-08-22T23:02:14.756Z,96288.88
2022-08-22T23:04:45.181Z,96315.69
2022-08-22T23:07:15.007Z,96271.75
2022-08-22T23:09:44.559Z,96295.75
2022-08-22T23:12:12.986Z,96305.44
2022-08-22T23:14:41.207Z,96306.56
2022-08-22T23:17:10.995Z,96315.16
2022-08-22T23:19:38.938Z,96320.19
2022-08-22T23:22:07.307Z,96315.75
2022-08-22T23:24:35.143Z,96292.78
2022-08-22T23:27:02.154Z,96330.84
2022-08-22T23:29:29.639Z,96324.69
2022-08-22T23:32:02.227Z,96322.06
2022-08-22T23:34:31.694Z,96289.25
2022-08-22T23:37:00.543Z,96307.38
2022-08-22T23:39:29.488Z,96316.59
2022-08-22T23:41:59.255Z,96298.75
2022-08-22T23:44:29.824Z,96321.78
2022-08-22T23:46:57.312Z,96310.47
2022-08-22T23:49:24.024Z,96318.22
2022-08-22T23:51:51.635Z,96317.38
2022-08-22T23:54:18.798Z,96299.44
2022-08-22T23:57:11.470Z,96312.25
2022-08-22T23:59:46.270Z,96269.41
